Time;durP1;ratioP1;P1;durP2;ratioP2;P2;SDS_P1;SDS_P2;PMS_P1;PMS_P2;Temp;Humidity;BMP_temperature;BMP_pressure;BME280_temperature;BME280_humidity;BME280_pressure;Samples;Min_cycle;Max_cycle;Signal;HPM_P1;HPM_P2
2023/04/15 00:01:47;;;;;;;12.30;6.00;;;;;;;8.03;78.76;99365.63;107446;1257;69119;-38
2023/04/15 00:04:17;;;;;;;15.60;6.60;;;;;;;8.02;78.78;99360.31;107482;1256;74017;-38
2023/04/15 00:06:51;;;;;;;13.10;5.70;;;;;;;7.98;78.97;99355.77;107404;1255;59795;-38
2023/04/15 00:09:20;;;;;;;10.90;5.30;;;;;;;7.94;79.10;99352.02;107380;1257;60322;-38
2023/04/15 00:11:49;;;;;;;9.40;5.60;;;;;;;7.93;79.21;99347.91;107473;1257;75024;-38
2023/04/15 00:14:20;;;;;;;9.60;5.40;;;;;;;7.91;79.28;99350.70;107423;1257;69015;-38
2023/04/15 00:16:54;;;;;;;7.00;5.10;;;;;;;7.86;79.28;99348.87;107442;1257;74292;-38
2023/04/15 00:19:24;;;;;;;10.50;5.40;;;;;;;7.90;79.25;99344.74;107446;1257;61199;-38
2023/04/15 00:21:52;;;;;;;9.90;5.80;;;;;;;7.93;79.01;99343.28;107507;1257;61518;-38
2023/04/15 00:24:21;;;;;;;7.60;5.50;;;;;;;7.92;78.79;99342.66;107414;1257;75096;-38
2023/04/15 00:26:49;;;;;;;8.20;4.70;;;;;;;7.89;78.37;99341.87;107489;1260;69136;-38
2023/04/15 00:29:19;;;;;;;10.70;5.20;;;;;;;7.92;78.00;99332.02;107426;1258;73650;-38
2023/04/15 00:31:47;;;;;;;7.80;5.30;;;;;;;7.91;77.81;99334.60;107474;1258;61395;-38
2023/04/15 00:34:16;;;;;;;7.10;5.30;;;;;;;7.90;77.83;99343.28;107455;1258;61537;-38
2023/04/15 00:36:46;;;;;;;10.90;5.40;;;;;;;7.91;77.66;99356.11;107463;1256;75159;-38
2023/04/15 00:39:15;;;;;;;12.40;5.80;;;;;;;7.97;77.41;99359.76;107251;1256;69334;-38
2023/04/15 00:41:44;;;;;;;9.60;5.60;;;;;;;7.99;77.14;99358.52;107456;1257;72849;-38
2023/04/15 00:44:14;;;;;;;7.00;5.30;;;;;;;7.98;76.85;99360.32;106612;1257;1003707;-38
2023/04/15 00:46:43;;;;;;;8.10;5.20;;;;;;;7.99;76.61;99359.66;107410;1256;61512;-38
2023/04/15 00:49:12;;;;;;;10.00;5.20;;;;;;;8.02;76.28;99356.05;107488;1258;75038;-38
2023/04/15 00:51:42;;;;;;;8.60;5.10;;;;;;;8.00;76.01;99356.62;107262;1263;69091;-38
2023/04/15 00:54:11;;;;;;;9.10;5.20;;;;;;;7.99;76.09;99363.70;107459;1256;73882;-37
2023/04/15 00:56:41;;;;;;;10.20;4.90;;;;;;;8.02;75.92;99367.48;107437;1257;61978;-37
2023/04/15 00:59:10;;;;;;;9.20;5.20;;;;;;;8.06;75.98;99367.67;107488;1256;61549;-37
2023/04/15 01:01:39;;;;;;;9.10;5.30;;;;;;;8.06;75.92;99365.87;107477;1257;75269;-37
2023/04/15 01:04:10;;;;;;;7.80;5.10;;;;;;;8.01;75.98;99361.02;107415;1256;69098;-37
2023/04/15 01:06:38;;;;;;;7.60;4.90;;;;;;;7.99;75.91;99371.39;107264;1257;73989;-37
2023/04/15 01:09:07;;;;;;;12.00;5.30;;;;;;;7.99;75.53;99369.38;107217;1257;61587;-37
2023/04/15 01:11:40;;;;;;;7.60;5.20;;;;;;;7.96;75.30;99372.77;107248;1257;61264;-37
2023/04/15 01:14:11;;;;;;;5.90;4.70;;;;;;;7.91;75.31;99376.10;107260;1262;72876;-38
2023/04/15 01:16:39;;;;;;;8.40;4.80;;;;;;;7.92;75.32;99377.36;107266;1257;69136;-38
2023/04/15 01:19:08;;;;;;;8.70;5.10;;;;;;;7.92;74.89;99377.75;107260;1257;73621;-38
2023/04/15 01:21:38;;;;;;;7.20;5.10;;;;;;;7.90;74.69;99377.73;107077;1257;61092;-38
2023/04/15 01:24:08;;;;;;;5.90;4.10;;;;;;;7.80;74.86;99379.16;107474;1257;60314;-38
2023/04/15 01:26:38;;;;;;;6.00;4.70;;;;;;;7.80;75.13;99378.30;107482;1256;75047;-39
2023/04/15 01:29:08;;;;;;;7.70;4.80;;;;;;;7.75;75.26;99377.55;107270;1257;69159;-38
2023/04/15 01:31:37;;;;;;;11.70;4.90;;;;;;;7.66;75.22;99379.02;107454;1260;72860;-38
2023/04/15 01:34:08;;;;;;;13.10;4.80;;;;;;;7.60;75.68;99384.71;107457;1257;62989;-38
2023/04/15 01:36:37;;;;;;;7.70;5.00;;;;;;;7.57;75.81;99380.39;107485;1257;61606;-38
2023/04/15 01:39:07;;;;;;;9.50;5.60;;;;;;;7.60;76.04;99384.93;107218;1261;74883;-38
2023/04/15 01:41:36;;;;;;;8.00;5.10;;;;;;;7.50;76.11;99385.25;107444;1257;69170;-38
2023/04/15 01:44:05;;;;;;;10.80;5.50;;;;;;;7.56;76.40;99388.05;107453;1258;73882;-38
2023/04/15 01:46:36;;;;;;;11.10;5.60;;;;;;;7.59;76.41;99390.23;107244;1257;61593;-38
2023/04/15 01:49:05;;;;;;;8.10;5.40;;;;;;;7.59;75.95;99391.41;107507;1256;61314;-38
2023/04/15 01:51:34;;;;;;;7.70;4.90;;;;;;;7.57;76.03;99391.08;107273;1255;75055;-38
2023/04/15 01:54:03;;;;;;;11.40;5.50;;;;;;;7.62;75.73;99395.96;107471;1256;69135;-38
2023/04/15 01:56:32;;;;;;;7.80;5.30;;;;;;;7.66;75.50;99392.83;107471;1257;74072;-38
2023/04/15 01:59:02;;;;;;;6.00;4.70;;;;;;;7.63;75.58;99392.84;107293;1260;62062;-38
2023/04/15 02:01:31;;;;;;;;;;;;;;;7.60;75.81;99400.05;107292;1256;62445;-38
2023/04/15 02:04:00;;;;;;;7.20;4.50;;;;;;;7.59;76.02;99398.34;107475;1257;75155;-38
2023/04/15 02:06:31;;;;;;;7.00;4.80;;;;;;;7.57;76.00;99394.79;107260;1257;69170;-38
2023/04/15 02:09:03;;;;;;;7.00;5.20;;;;;;;7.56;75.93;99394.14;107452;1256;72426;-38
2023/04/15 02:11:34;;;;;;;7.70;4.60;;;;;;;7.48;75.84;99390.81;107411;1258;62941;-38
2023/04/15 02:14:05;;;;;;;7.30;5.20;;;;;;;7.51;75.78;99395.54;107295;1257;61545;-38
2023/04/15 02:16:33;;;;;;;8.40;5.20;;;;;;;7.52;75.52;99398.19;107458;1258;74065;-38
2023/04/15 02:19:03;;;;;;;;;;;;;;;7.51;75.58;99396.52;107457;1257;69006;-38
2023/04/15 02:21:32;;;;;;;9.00;4.80;;;;;;;7.45;75.55;99397.65;107432;1257;73786;-38
2023/04/15 02:24:01;;;;;;;6.50;5.20;;;;;;;7.46;75.47;99404.52;107452;1256;61545;-38
2023/04/15 02:26:31;;;;;;;9.00;5.30;;;;;;;7.48;75.58;99408.14;107422;1257;60603;-38
2023/04/15 02:29:00;;;;;;;5.90;4.80;;;;;;;7.47;75.51;99404.48;107269;1256;75075;-38
2023/04/15 02:31:32;;;;;;;6.50;4.80;;;;;;;7.44;75.17;99408.64;107337;1257;69454;-38
2023/04/15 02:34:03;;;;;;;6.60;5.10;;;;;;;7.46;75.06;99409.40;107347;1258;73938;-37
2023/04/15 02:36:33;;;;;;;5.90;5.00;;;;;;;7.42;74.83;99412.06;107271;1257;61249;-37
2023/04/15 02:39:02;;;;;;;5.80;5.00;;;;;;;7.35;73.96;99410.52;107249;1263;59787;-37
2023/04/15 02:41:36;;;;;;;8.10;4.80;;;;;;;7.29;73.76;99416.73;107340;1257;74849;-38
2023/04/15 02:44:08;;;;;;;5.60;5.10;;;;;;;7.26;73.86;99416.69;107450;1257;68835;-37
2023/04/15 02:46:40;;;;;;;6.80;5.30;;;;;;;7.25;73.91;99418.27;107359;1257;73852;-37
2023/04/15 02:49:11;;;;;;;7.70;4.50;;;;;;;7.17;73.99;99417.27;107243;1257;63339;-37
2023/04/15 02:51:39;;;;;;;7.20;4.80;;;;;;;7.20;73.79;99414.58;107425;1258;60526;-37
2023/04/15 02:54:07;;;;;;;4.90;4.30;;;;;;;7.20;73.49;99412.33;107113;1258;75033;-38
2023/04/15 02:56:42;;;;;;;5.50;4.40;;;;;;;7.15;73.46;99417.80;107407;1258;68898;-38
2023/04/15 02:59:12;;;;;;;;;;;;;;;7.10;73.39;99416.64;107439;1257;75029;-38
2023/04/15 03:01:40;;;;;;;5.90;4.90;;;;;;;7.05;73.27;99411.20;107246;1257;61674;-37
2023/04/15 03:04:10;;;;;;;6.10;4.80;;;;;;;6.98;73.60;99411.14;107359;1258;61516;-37
2023/04/15 03:06:40;;;;;;;5.80;4.60;;;;;;;6.96;73.71;99411.61;107587;1252;74780;-37
2023/04/15 03:09:09;;;;;;;6.50;4.60;;;;;;;7.02;73.78;99416.50;107626;1254;67970;-37
2023/04/15 03:11:39;;;;;;;6.40;5.10;;;;;;;7.04;73.89;99416.66;107665;1252;73621;-37
2023/04/15 03:14:10;;;;;;;6.00;4.90;;;;;;;7.01;73.85;99407.70;107652;1253;61650;-37
2023/04/15 03:16:43;;;;;;;5.30;4.70;;;;;;;6.99;74.10;99412.86;107656;1254;61197;-37
2023/04/15 03:19:13;;;;;;;7.20;5.20;;;;;;;7.03;74.07;99415.09;107664;1256;74390;-37
2023/04/15 03:21:42;;;;;;;7.70;5.50;;;;;;;7.04;73.85;99412.33;107720;1253;67946;-38
2023/04/15 03:24:12;;;;;;;;;;;;;;;7.00;73.98;99411.67;107640;1257;72363;-37
2023/04/15 03:26:41;;;;;;;7.10;4.90;;;;;;;6.91;74.12;99412.89;107652;1254;60650;-38
2023/04/15 03:29:12;;;;;;;6.30;5.30;;;;;;;6.88;74.21;99418.73;107683;1254;61559;-37
2023/04/15 03:31:42;;;;;;;5.50;4.80;;;;;;;6.84;74.04;99408.66;107692;1253;72823;-37
2023/04/15 03:34:11;;;;;;;7.60;6.00;;;;;;;6.87;74.23;99421.31;107684;1254;68887;-37
2023/04/15 03:36:40;;;;;;;6.40;5.20;;;;;;;6.84;74.49;99423.66;107556;1254;73615;-37
2023/04/15 03:39:09;;;;;;;7.10;5.70;;;;;;;6.88;74.71;99420.73;107625;1254;61501;-37
2023/04/15 03:41:37;;;;;;;9.10;5.70;;;;;;;6.89;74.50;99428.63;107584;1254;61653;-38
2023/04/15 03:44:09;;;;;;;8.90;6.20;;;;;;;6.81;74.53;99431.73;107575;1252;75024;-38
2023/04/15 03:46:38;;;;;;;10.20;5.40;;;;;;;6.85;74.56;99436.27;107582;1254;69551;-37
2023/04/15 03:49:07;;;;;;;8.50;6.40;;;;;;;6.91;74.68;99440.45;107604;1254;73823;-37
2023/04/15 03:51:38;;;;;;;7.10;6.20;;;;;;;6.93;74.49;99443.60;107651;1253;61596;-37
2023/04/15 03:54:06;;;;;;;7.50;6.10;;;;;;;6.90;74.25;99439.97;107571;1254;60417;-37
2023/04/15 03:56:35;;;;;;;7.50;5.60;;;;;;;6.86;74.32;99444.36;107314;1254;413489;-37
2023/04/15 04:00:06;;;;;;;7.70;6.50;;;;;;;6.91;74.13;99442.70;104118;1292;600939;-37
2023/04/15 04:02:39;;;;;;;10.00;6.60;;;;;;;6.89;74.21;99449.33;106601;1267;60334;-37
2023/04/15 04:05:08;;;;;;;8.80;6.50;;;;;;;6.87;74.32;99449.50;106650;1266;61534;-38
2023/04/15 04:07:36;;;;;;;10.90;6.40;;;;;;;6.90;74.21;99447.45;106740;1267;73215;-37
2023/04/15 04:10:06;;;;;;;8.00;6.40;;;;;;;6.90;74.24;99449.92;106750;1267;69157;-37
2023/04/15 04:12:34;;;;;;;8.80;7.00;;;;;;;6.89;74.29;99447.73;106582;1272;170360;-38
2023/04/15 04:15:06;;;;;;;7.20;6.20;;;;;;;6.88;74.22;99449.74;106837;1264;61422;-37
2023/04/15 04:17:35;;;;;;;8.70;6.70;;;;;;;6.89;74.29;99454.12;106836;1267;59634;-38
2023/04/15 04:20:05;;;;;;;10.20;6.80;;;;;;;6.92;74.33;99447.27;106899;1264;71903;-38
2023/04/15 04:22:41;;;;;;;8.40;6.80;;;;;;;6.93;74.29;99446.70;106839;1267;68844;-37
2023/04/15 04:25:10;;;;;;;8.70;6.40;;;;;;;6.91;74.02;99440.88;106779;1264;72787;-37
2023/04/15 04:27:38;;;;;;;7.60;6.20;;;;;;;6.86;74.07;99435.00;106801;1268;61658;-37
2023/04/15 04:30:07;;;;;;;9.60;7.00;;;;;;;6.92;74.19;99436.50;106854;1269;61635;-36
2023/04/15 04:32:38;;;;;;;9.10;6.80;;;;;;;6.90;74.26;99432.65;106820;1269;74300;-37
2023/04/15 04:35:07;;;;;;;8.40;6.40;;;;;;;6.83;74.20;99431.11;106834;1266;69115;-38
2023/04/15 04:37:38;;;;;;;8.20;6.30;;;;;;;6.87;74.34;99439.77;106842;1269;72689;-37
2023/04/15 04:40:08;;;;;;;7.10;5.90;;;;;;;6.86;74.13;99443.08;106772;1266;61636;-37
2023/04/15 04:42:36;;;;;;;8.50;6.50;;;;;;;6.84;74.18;99447.54;106733;1267;60024;-37
2023/04/15 04:45:08;;;;;;;7.60;5.40;;;;;;;6.79;74.33;99439.89;106726;1269;74240;-37
2023/04/15 04:47:36;;;;;;;7.90;6.30;;;;;;;6.84;74.26;99449.09;106758;1267;67678;-37
2023/04/15 04:50:06;;;;;;;10.50;6.90;;;;;;;6.87;74.16;99448.94;106706;1264;73901;-37
2023/04/15 04:52:37;;;;;;;7.40;6.20;;;;;;;6.83;74.08;99448.43;106814;1266;60634;-37
2023/04/15 04:55:07;;;;;;;6.90;5.70;;;;;;;6.83;74.31;99452.74;106851;1264;61420;-37
2023/04/15 04:57:41;;;;;;;7.80;6.00;;;;;;;6.89;73.87;99450.81;106835;1267;74084;-37
2023/04/15 05:00:13;;;;;;;7.40;6.30;;;;;;;6.90;73.69;99452.90;106843;1264;68858;-37
2023/04/15 05:02:44;;;;;;;7.50;5.70;;;;;;;6.88;73.91;99453.52;106854;1269;73750;-37
2023/04/15 05:05:12;;;;;;;8.80;5.30;;;;;;;6.88;74.02;99451.94;106885;1269;61690;-37
2023/04/15 05:07:46;;;;;;;8.40;5.60;;;;;;;6.98;73.80;99458.66;106876;1263;61516;-37
2023/04/15 05:10:16;;;;;;;7.30;6.00;;;;;;;7.03;73.37;99458.06;106867;1266;74250;-37
2023/04/15 05:12:45;;;;;;;8.10;5.30;;;;;;;7.06;72.96;99455.30;106816;1266;69051;-37
2023/04/15 05:15:15;;;;;;;6.80;5.00;;;;;;;7.06;72.61;99457.38;106823;1266;72832;-37
2023/04/15 05:17:44;;;;;;;7.90;4.90;;;;;;;7.10;72.12;99455.98;106797;1268;61676;-37
2023/04/15 05:20:14;;;;;;;5.40;4.90;;;;;;;7.14;72.05;99460.04;106785;1269;61576;-37
2023/04/15 05:22:43;;;;;;;6.10;4.60;;;;;;;7.15;72.03;99460.61;106809;1265;73827;-37
2023/04/15 05:25:15;;;;;;;6.70;4.80;;;;;;;7.13;71.34;99459.00;106820;1268;69073;-37
2023/04/15 05:27:45;;;;;;;6.40;5.20;;;;;;;7.21;71.33;99460.98;106821;1268;73772;-37
2023/04/15 05:30:13;;;;;;;8.00;4.70;;;;;;;7.25;71.00;99462.20;106792;1268;61471;-37
2023/04/15 05:32:42;;;;;;;6.60;5.10;;;;;;;7.25;70.77;99461.80;106766;1269;61533;-37
2023/04/15 05:35:11;;;;;;;5.70;4.70;;;;;;;7.19;70.89;99461.83;106742;1267;74407;-37
2023/04/15 05:37:40;;;;;;;5.80;4.90;;;;;;;7.21;71.10;99458.21;106780;1267;69166;-37
2023/04/15 05:40:09;;;;;;;7.60;4.90;;;;;;;7.23;71.15;99459.11;106807;1269;73798;-37
2023/04/15 05:42:37;;;;;;;6.40;5.40;;;;;;;7.24;71.27;99459.55;107149;1263;60294;-37
2023/04/15 05:45:11;;;;;;;6.40;4.80;;;;;;;7.23;71.14;99457.59;107106;1259;61612;-37
2023/04/15 05:47:41;;;;;;;6.00;5.20;;;;;;;7.28;70.86;99464.23;107090;1257;72895;-37
2023/04/15 05:50:10;;;;;;;11.80;5.40;;;;;;;7.30;70.69;99467.92;107108;1262;69087;-37
2023/04/15 05:52:39;;;;;;;6.70;5.60;;;;;;;7.28;71.08;99468.77;107225;1263;73994;-37
2023/04/15 05:55:09;;;;;;;8.10;5.50;;;;;;;7.27;71.36;99471.80;107211;1263;62717;-37
2023/04/15 05:57:39;;;;;;;7.50;5.70;;;;;;;7.27;71.39;99473.88;107248;1257;60502;-37
2023/04/15 06:00:08;;;;;;;8.60;5.60;;;;;;;7.24;71.53;99468.79;107078;1263;73062;-37
2023/04/15 06:02:38;;;;;;;10.20;6.10;;;;;;;7.17;71.63;99477.80;107055;1263;69097;-37
2023/04/15 06:05:08;;;;;;;7.20;5.00;;;;;;;7.15;72.07;99485.60;107080;1263;73846;-37
2023/04/15 06:07:37;;;;;;;6.60;4.50;;;;;;;7.23;71.15;99479.38;107046;1261;60007;-37
2023/04/15 06:10:07;;;;;;;5.80;4.50;;;;;;;7.30;70.15;99477.46;107060;1261;60268;-37
2023/04/15 06:12:39;;;;;;;8.50;4.90;;;;;;;7.34;70.22;99488.09;106944;1261;73908;-37
2023/04/15 06:15:11;;;;;;;6.90;5.50;;;;;;;7.33;69.41;99481.27;106917;1266;68974;-37
2023/04/15 06:17:40;;;;;;;6.60;5.00;;;;;;;7.28;69.36;99478.17;106971;1259;73817;-38
2023/04/15 06:20:13;;;;;;;8.20;5.00;;;;;;;7.32;69.54;99486.17;106948;1261;61443;-38
2023/04/15 06:22:42;;;;;;;7.30;5.70;;;;;;;7.36;69.76;99487.59;107097;1260;61536;-37
2023/04/15 06:25:11;;;;;;;7.50;6.20;;;;;;;7.33;69.85;99481.02;107035;1259;74033;-37
2023/04/15 06:27:40;;;;;;;7.60;6.40;;;;;;;7.30;70.14;99494.19;107020;1264;69155;-37
2023/04/15 06:30:09;;;;;;;9.50;6.10;;;;;;;7.26;70.71;99494.35;107026;1261;73614;-37
2023/04/15 06:32:38;;;;;;;;;;;;;;;7.27;70.72;99488.61;107070;1261;61675;-37
2023/04/15 06:35:08;;;;;;;5.60;4.40;;;;;;;7.22;70.79;99500.30;107068;1265;61233;-37
2023/04/15 06:37:37;;;;;;;10.90;6.50;;;;;;;7.17;71.10;99494.73;107066;1261;74223;-37
2023/04/15 06:40:07;;;;;;;7.30;6.00;;;;;;;7.17;70.93;99493.75;107068;1263;68855;-37
2023/04/15 06:42:37;;;;;;;9.10;5.50;;;;;;;7.24;70.39;99493.35;107041;1260;71987;-37
2023/04/15 06:45:07;;;;;;;7.00;5.60;;;;;;;7.27;70.46;99498.92;107038;1263;60904;-37
2023/04/15 06:47:36;;;;;;;9.70;6.30;;;;;;;7.24;70.04;99494.52;107115;1261;60078;-37
2023/04/15 06:50:05;;;;;;;8.70;5.60;;;;;;;7.20;70.13;99499.24;107105;1261;73102;-37
2023/04/15 06:52:35;;;;;;;7.10;4.80;;;;;;;7.15;70.16;99494.52;106985;1263;69504;-37
2023/04/15 06:55:05;;;;;;;10.70;5.80;;;;;;;7.16;70.33;99494.86;106914;1259;73237;-38
2023/04/15 06:57:34;;;;;;;7.40;5.50;;;;;;;7.15;70.47;99493.69;106988;1261;61562;-37
2023/04/15 07:00:04;;;;;;;9.70;5.90;;;;;;;7.12;70.61;99496.34;107158;1261;61258;-37
2023/04/15 07:02:34;;;;;;;7.00;6.00;;;;;;;7.07;70.66;99493.16;107249;1257;72038;-37
2023/04/15 07:05:03;;;;;;;7.40;5.80;;;;;;;7.07;70.94;99494.30;106563;1257;1002645;-37
2023/04/15 07:07:37;;;;;;;9.90;6.50;;;;;;;7.03;71.03;99490.10;107224;1262;73629;-37
2023/04/15 07:10:07;;;;;;;10.60;6.30;;;;;;;6.99;71.25;99487.95;107248;1258;61644;-37
2023/04/15 07:12:35;;;;;;;10.60;6.00;;;;;;;6.99;71.46;99493.56;107251;1262;61625;-38
2023/04/15 07:15:05;;;;;;;9.20;6.10;;;;;;;7.04;71.83;99492.98;107242;1257;74244;-37
2023/04/15 07:17:34;;;;;;;;;;;;;;;7.08;71.62;99493.04;107242;1258;67628;-38
2023/04/15 07:20:04;;;;;;;13.00;8.30;;;;;;;7.03;71.59;99493.23;107250;1257;73859;-38
2023/04/15 07:22:33;;;;;;;10.90;7.60;;;;;;;7.01;71.45;99500.27;107211;1262;62029;-38
2023/04/15 07:25:03;;;;;;;7.40;6.00;;;;;;;7.08;71.52;99503.97;107268;1257;61566;-37
2023/04/15 07:27:33;;;;;;;8.50;5.80;;;;;;;7.06;71.75;99507.07;107261;1257;72375;-38
2023/04/15 07:30:01;;;;;;;7.10;5.50;;;;;;;7.00;72.09;99509.95;107259;1257;69144;-37
2023/04/15 07:32:30;;;;;;;7.10;5.10;;;;;;;6.96;72.26;99503.97;107071;1257;73892;-37
2023/04/15 07:35:02;;;;;;;9.50;6.70;;;;;;;6.94;72.31;99505.72;107022;1257;60368;-37
2023/04/15 07:37:31;;;;;;;8.70;6.80;;;;;;;6.90;72.52;99503.89;107197;1257;61529;-37
2023/04/15 07:40:00;;;;;;;8.20;6.00;;;;;;;6.87;72.81;99505.69;107101;1257;74297;-37
2023/04/15 07:42:35;;;;;;;10.50;6.00;;;;;;;6.92;72.42;99513.73;107119;1258;68881;-37
2023/04/15 07:45:08;;;;;;;8.20;6.30;;;;;;;6.93;72.00;99505.53;107218;1257;73991;-37
2023/04/15 07:47:36;;;;;;;7.40;5.80;;;;;;;6.95;71.67;99504.23;107255;1257;60064;-37
2023/04/15 07:50:07;;;;;;;6.10;4.70;;;;;;;6.98;71.77;99510.09;107126;1257;61543;-37
2023/04/15 07:52:39;;;;;;;8.80;5.70;;;;;;;7.07;71.85;99517.42;107234;1257;72995;-37
2023/04/15 07:55:08;;;;;;;8.90;5.20;;;;;;;7.14;71.07;99519.83;107204;1257;69199;-37
2023/04/15 07:57:39;;;;;;;7.90;5.10;;;;;;;7.16;70.14;99527.52;107222;1257;73620;-37
2023/04/15 08:00:09;;;;;;;8.20;5.20;;;;;;;7.16;70.15;99528.60;107196;1258;60005;-37
2023/04/15 08:02:42;;;;;;;8.40;5.40;;;;;;;7.17;69.95;99525.55;107218;1258;61262;-37
2023/04/15 08:05:12;;;;;;;;;;;;;;;7.18;70.06;99524.90;107271;1257;71100;-37
2023/04/15 08:07:49;;;;;;;9.70;7.60;;;;;;;7.14;70.52;99527.91;107224;1258;68126;-37
2023/04/15 08:10:18;;;;;;;7.40;5.10;;;;;;;7.14;71.02;99527.84;107186;1258;73558;-37
2023/04/15 08:12:48;;;;;;;5.70;4.80;;;;;;;7.20;70.70;99525.64;107249;1258;63180;-37
2023/04/15 08:15:22;;;;;;;9.50;5.70;;;;;;;7.21;70.31;99527.23;107231;1258;61461;-37
2023/04/15 08:17:52;;;;;;;7.60;5.40;;;;;;;7.19;70.40;99529.69;106345;1257;1003087;-37
2023/04/15 08:20:21;;;;;;;7.70;4.90;;;;;;;7.14;70.24;99529.38;107089;1257;67696;-37
2023/04/15 08:22:50;;;;;;;6.80;4.70;;;;;;;7.13;70.48;99531.50;107167;1257;73811;-37
2023/04/15 08:25:20;;;;;;;5.80;5.20;;;;;;;7.16;70.51;99534.27;107224;1257;60482;-37
2023/04/15 08:27:55;;;;;;;9.20;5.40;;;;;;;7.15;70.27;99529.88;107160;1257;61483;-37
2023/04/15 08:30:26;;;;;;;6.30;4.30;;;;;;;7.13;70.43;99529.33;107136;1257;74982;-37
2023/04/15 08:32:55;;;;;;;6.00;4.50;;;;;;;7.13;70.69;99532.02;107254;1257;68996;-37
2023/04/15 08:35:24;;;;;;;5.30;4.10;;;;;;;7.14;70.84;99528.40;107228;1257;73862;-37
2023/04/15 08:37:53;;;;;;;7.00;4.60;;;;;;;7.14;70.74;99525.38;106436;1258;1002820;-37
2023/04/15 08:40:22;;;;;;;4.50;3.50;;;;;;;7.14;70.86;99527.82;107212;1257;61670;-37
2023/04/15 08:42:57;;;;;;;6.80;4.70;;;;;;;7.17;70.54;99526.85;107074;1257;74909;-37
2023/04/15 08:45:27;;;;;;;5.70;4.60;;;;;;;7.15;70.69;99529.95;107241;1257;68514;-38
2023/04/15 08:48:00;;;;;;;6.50;4.90;;;;;;;7.13;70.90;99534.40;107068;1257;72551;-37
2023/04/15 08:50:29;;;;;;;6.80;4.60;;;;;;;7.07;71.30;99529.73;107031;1258;63091;-37
2023/04/15 08:53:01;;;;;;;6.30;4.60;;;;;;;7.07;71.45;99528.04;107079;1257;61564;-37
2023/04/15 08:55:35;;;;;;;6.20;4.70;;;;;;;7.05;71.67;99531.15;107034;1257;74890;-37
2023/04/15 08:58:03;;;;;;;6.50;4.90;;;;;;;7.00;72.06;99528.18;107279;1258;67988;-38
2023/04/15 09:00:33;;;;;;;5.20;4.10;;;;;;;7.00;72.17;99526.28;107061;1258;73545;-37
2023/04/15 09:03:02;;;;;;;7.90;5.00;;;;;;;7.01;72.04;99535.39;107226;1257;61630;-37
2023/04/15 09:05:32;;;;;;;6.90;5.40;;;;;;;7.02;72.30;99533.94;107104;1257;60363;-37
2023/04/15 09:08:01;;;;;;;12.80;5.20;;;;;;;7.00;72.53;99540.35;107100;1257;73896;-37
2023/04/15 09:10:31;;;;;;;6.00;4.70;;;;;;;7.06;72.70;99546.36;107133;1257;69125;-37
2023/04/15 09:13:03;;;;;;;8.40;5.50;;;;;;;7.10;72.76;99553.11;107097;1257;72675;-37
2023/04/15 09:15:32;;;;;;;8.60;5.40;;;;;;;7.10;72.89;99559.49;107112;1257;61240;-37
2023/04/15 09:18:00;;;;;;;6.30;4.80;;;;;;;7.05;72.67;99552.46;107237;1258;61549;-37
2023/04/15 09:20:29;;;;;;;8.20;5.70;;;;;;;7.03;72.78;99546.06;107196;1257;74887;-36
2023/04/15 09:22:58;;;;;;;8.80;5.50;;;;;;;6.97;72.50;99540.95;107112;1257;67975;-37
2023/04/15 09:25:30;;;;;;;8.90;5.90;;;;;;;6.90;72.23;99529.15;107019;1257;73895;-37
2023/04/15 09:28:03;;;;;;;6.70;4.60;;;;;;;6.83;72.61;99546.50;107108;1257;63217;-37
2023/04/15 09:30:32;;;;;;;4.90;4.00;;;;;;;6.87;72.58;99555.96;107184;1257;61500;-37
2023/04/15 09:33:01;;;;;;;6.10;4.50;;;;;;;6.90;72.04;99551.09;107284;1257;74899;-37
2023/04/15 09:35:30;;;;;;;6.30;4.50;;;;;;;6.91;71.99;99553.05;107264;1257;67731;-37
2023/04/15 09:38:06;;;;;;;8.70;4.70;;;;;;;6.92;72.09;99562.09;107225;1257;73864;-37
2023/04/15 09:40:41;;;;;;;12.20;8.50;;;;;;;6.97;72.00;99565.72;107253;1257;61496;-37
2023/04/15 09:43:11;;;;;;;9.30;6.50;;;;;;;7.06;71.73;99566.44;107232;1258;60372;-37
2023/04/15 09:45:46;;;;;;;7.60;5.70;;;;;;;7.09;71.62;99562.31;107199;1257;75105;-37
2023/04/15 09:48:16;;;;;;;9.80;6.60;;;;;;;7.09;71.42;99558.06;107240;1257;68786;-37
2023/04/15 09:50:45;;;;;;;7.30;5.00;;;;;;;7.04;71.30;99555.25;107222;1257;73781;-37
2023/04/15 09:53:16;;;;;;;6.30;5.00;;;;;;;7.07;71.43;99556.95;107190;1257;60316;-37
2023/04/15 09:55:55;;;;;;;8.60;5.70;;;;;;;7.11;71.42;99549.44;107226;1257;60262;-38
2023/04/15 09:58:26;;;;;;;7.30;5.80;;;;;;;7.12;71.33;99545.34;107210;1257;75062;-37
2023/04/15 10:00:55;;;;;;;9.70;5.70;;;;;;;7.09;70.92;99548.55;107680;1253;69182;-37
2023/04/15 10:03:26;;;;;;;8.90;5.10;;;;;;;7.06;70.65;99549.75;107593;1254;73963;-37
2023/04/15 10:05:56;;;;;;;6.10;5.10;;;;;;;7.05;70.73;99550.68;107603;1253;61349;-37
2023/04/15 10:08:31;;;;;;;8.60;5.40;;;;;;;7.00;70.99;99548.83;107603;1254;60325;-37
2023/04/15 10:11:00;;;;;;;9.00;5.60;;;;;;;6.95;71.16;99556.52;107668;1253;74857;-38
2023/04/15 10:13:35;;;;;;;11.10;6.30;;;;;;;6.94;71.26;99557.85;107604;1254;69328;-38
2023/04/15 10:16:10;;;;;;;7.60;5.60;;;;;;;6.93;71.34;99558.23;107611;1254;73763;-38
2023/04/15 10:18:44;;;;;;;12.50;6.10;;;;;;;6.92;71.65;99561.86;107606;1254;61265;-38
2023/04/15 10:21:15;;;;;;;7.50;6.00;;;;;;;6.90;71.72;99563.09;107646;1254;61400;-38
2023/04/15 10:23:46;;;;;;;9.40;6.40;;;;;;;6.95;71.44;99562.51;107610;1254;73832;-38
2023/04/15 10:26:16;;;;;;;8.30;6.30;;;;;;;6.96;71.25;99561.04;107618;1253;69202;-38
2023/04/15 10:28:46;;;;;;;8.50;6.30;;;;;;;6.95;71.30;99556.58;107579;1254;72621;-38
2023/04/15 10:31:14;;;;;;;8.00;6.20;;;;;;;6.96;71.52;99558.38;107559;1257;63172;-38
2023/04/15 10:33:43;;;;;;;8.10;5.90;;;;;;;6.96;71.43;99558.02;107321;1254;61231;-38
2023/04/15 10:36:14;;;;;;;8.10;6.20;;;;;;;6.97;71.21;99561.02;107368;1253;74714;-38
2023/04/15 10:38:44;;;;;;;10.60;6.90;;;;;;;6.92;71.17;99558.63;107511;1254;69113;-38
2023/04/15 10:41:22;;;;;;;8.00;5.90;;;;;;;6.84;72.25;99562.56;107567;1254;72635;-38
2023/04/15 10:43:56;;;;;;;;;;;;;;;6.83;72.91;99564.14;107531;1254;60416;-38
2023/04/15 10:46:41;;;;;;;10.80;7.10;;;;;;;6.76;73.13;99562.43;107583;1254;61327;-38
2023/04/15 10:49:14;;;;;;;10.10;7.00;;;;;;;6.71;73.18;99566.78;106901;1254;1003418;-38
2023/04/15 10:51:45;;;;;;;8.50;6.40;;;;;;;6.71;73.08;99561.36;107609;1254;69140;-38
2023/04/15 10:54:15;;;;;;;12.30;6.80;;;;;;;6.74;72.89;99561.20;107607;1254;73566;-38
2023/04/15 10:56:44;;;;;;;8.50;6.40;;;;;;;6.74;72.66;99563.02;107577;1254;61684;-38
2023/04/15 10:59:12;;;;;;;9.30;5.90;;;;;;;6.65;72.55;99552.53;107603;1253;61206;-38
2023/04/15 11:01:55;;;;;;;6.30;5.70;;;;;;;6.69;72.52;99562.30;107361;1254;74403;-38
2023/04/15 11:04:56;;;;;;;9.30;6.50;;;;;;;6.69;72.45;99561.38;107638;1254;68804;-38
2023/04/15 11:07:51;;;;;;;7.80;6.30;;;;;;;6.66;72.61;99560.52;107549;1254;73791;-38
2023/04/15 11:10:19;;;;;;;9.10;6.00;;;;;;;6.66;72.46;99559.90;107592;1253;61457;-38
2023/04/15 11:12:50;;;;;;;8.90;6.00;;;;;;;6.67;72.39;99563.33;107610;1253;60285;-38
2023/04/15 11:15:29;;;;;;;8.40;5.90;;;;;;;6.67;72.44;99558.25;107634;1254;75099;-38
2023/04/15 11:18:07;;;;;;;13.20;6.00;;;;;;;6.67;72.31;99562.77;107685;1253;68099;-38
2023/04/15 11:20:37;;;;;;;8.20;5.60;;;;;;;6.71;72.23;99557.92;107601;1253;72711;-38
2023/04/15 11:23:05;;;;;;;8.30;6.00;;;;;;;6.67;72.21;99556.23;106895;1254;1002879;-38
2023/04/15 11:25:42;;;;;;;10.20;5.70;;;;;;;6.65;72.27;99557.59;107637;1253;61329;-38
2023/04/15 11:28:11;;;;;;;7.10;5.40;;;;;;;6.68;72.44;99560.42;107641;1254;74766;-38
2023/04/15 11:30:41;;;;;;;9.70;6.30;;;;;;;6.69;72.49;99561.94;107603;1254;69157;-38
2023/04/15 11:33:11;;;;;;;;;;;;;;;6.68;72.42;99564.66;107608;1254;74717;-38
2023/04/15 11:35:40;;;;;;;12.30;6.00;;;;;;;6.64;72.73;99564.67;107632;1253;63272;-38
2023/04/15 11:38:12;;;;;;;7.50;5.70;;;;;;;6.67;72.70;99569.77;107686;1257;61544;-38
2023/04/15 11:40:41;;;;;;;8.10;6.10;;;;;;;6.69;72.77;99557.53;107594;1254;75033;-38
2023/04/15 11:43:15;;;;;;;7.90;5.80;;;;;;;6.69;72.72;99563.31;107629;1254;68209;-38
2023/04/15 11:45:51;;;;;;;8.70;6.10;;;;;;;6.69;72.74;99562.48;107614;1254;73531;-38
2023/04/15 11:48:22;;;;;;;7.50;6.00;;;;;;;6.72;72.57;99556.95;107554;1254;60456;-38
2023/04/15 11:50:54;;;;;;;;;;;;;;;6.68;73.17;99555.64;106105;1253;1002947;-38